Portaferry, United Kingdom
Current Conditions -  °F | °C
As of 7:50 AM on Wednesday 22 Oct 2014 (Local Time) from EGAC Reporting Station
Broken Clouds Broken Clouds  
Wind Chill: 43°   Ceiling: 3000
Heat Index: 48°   Visibility: 6mi
Dew Point: 43°   Wind: 14mph
Humidity: 82%   Direction: 210°SSW
Pressure: 30.15"   Gusts: NA
Location:  54.38°N, 5.55°W
Report Text: EGAC 220650Z 21012KT 9999 FEW018 SCT025 BKN030 09/06 Q1021
Loading
Personal Weather Stations






























Interactive Weather Map
Tropical Storm Tracking
New forecast layout! Learn more

10-Day Weather Forecast

Advertisements
Track Severe Weather on mobile